Pagrindinis puslapis
METAR-TAF:

METAR-TAF

Oro uostai :

Stavangeris, Norvegija

platuma: 58-53N, ilguma: 005-38E, Aukštis: 0 m

Dabartinis oras

Ataskaita buvo paskelbta 10 minutes, ne 12:20 UTC
Vėjas 11 kt iš Pietvakarių
Temperatūra 16°C
Drėgmė 82%
Slėgis 1015 hPa
Matomumas 10 km arba daugiau
Išsisklaidę debesys ne aukštis 1500 ft
Su prošvaistėmis ne aukštis 4000 ft

METAR: ENZV 221220Z 22011KT 9999 SCT015 BKN040 16/13 Q1015 NOSIG

Laikas: 14:30 (12:30 UTC)

Prognozė

Prognozė galioja nuo 22 metu 12 UTC su 23 metu 12 UTC
Vėjas 12 kt iš Pietvakarių
Matomumas 10 km arba daugiau
Išsisklaidę debesys ne aukštis 1200 ft
Su prošvaistėmis ne aukštis 2000 ft
Laikinai
nuo 22 metu 23 UTC su 23 metu 03 UTC
Su prošvaistėmis ne aukštis 1200 ft
Išsisklaidę debesys ne aukštis 1800 ft, Liūtiniai kamuoliniai debesys.
lietus

TAF: ENZV 2212/2312 22012KT 9999 SCT012 BKN020 TEMPO 2223/2303 SHRA BKN012 SCT018CB

Orai ataskaitas ir orų prognozės (METAR, TAF).

turimą stotys yra geltonos ir raudonos taškus žemėlapyje.

Perkelti pele per norėdami pamatyti stoties vardą.

Tada spustelėkite, norėdami matyti oro stebėjimo ir prognozės.

Norėdami pakeisti žemėlapį: spustelėkite ant žalios mygtukų su juodo kryžiaus žemyn,; žalią mygtuką su brūkšneliu, jei norite nutolinti; arba žalių rodyklių gretimoms žemėlapius.


METAR-TAF: